Time;durP1;ratioP1;P1;durP2;ratioP2;P2;SDS_P1;SDS_P2;PMS_P1;PMS_P2;Temp;Humidity;BMP_temperature;BMP_pressure;BME280_temperature;BME280_humidity;BME280_pressure;Samples;Min_cycle;Max_cycle;Signal;HPM_P1;HPM_P2
2022/03/31 00:01:42;;;;;;;10.80;5.72;;;;;;;;;;5080251;28;20941;-69
2022/03/31 00:04:08;;;;;;;9.60;5.00;;;;;;;;;;5082614;28;20043;-69
2022/03/31 00:06:34;;;;;;;9.15;4.80;;;;;;;;;;5079770;28;20034;-69
2022/03/31 00:09:00;;;;;;;10.60;5.40;;;;;;;;;;5074534;28;20025;-69
2022/03/31 00:11:26;;;;;;;7.68;4.53;;;;;;;;;;5074374;28;20407;-68
2022/03/31 00:13:52;;;;;;;8.38;4.85;;;;;;;;;;5081694;28;20023;-69
2022/03/31 00:16:18;;;;;;;7.78;4.68;;;;;;;;;;5076995;28;20460;-69
2022/03/31 00:18:43;;;;;;;10.98;4.88;;;;;;;;;;5073540;28;20033;-68
2022/03/31 00:21:10;;;;;;;10.43;4.70;;;;;;;;;;5075386;28;20024;-68
2022/03/31 00:23:37;;;;;;;8.82;4.30;;;;;;;;;;5078868;28;20020;-69
2022/03/31 00:26:03;;;;;;;9.85;4.63;;;;;;;;;;5090087;28;20031;-68
2022/03/31 00:28:29;;;;;;;9.88;5.30;;;;;;;;;;5075866;28;20060;-69
2022/03/31 00:30:55;;;;;;;9.82;5.05;;;;;;;;;;5075802;28;20058;-69
2022/03/31 00:33:21;;;;;;;7.32;4.40;;;;;;;;;;5083980;28;20455;-69
2022/03/31 00:35:47;;;;;;;8.50;5.10;;;;;;;;;;5073625;28;20069;-68
2022/03/31 00:38:13;;;;;;;10.48;4.80;;;;;;;;;;5079339;28;20040;-69
2022/03/31 00:40:39;;;;;;;8.18;4.72;;;;;;;;;;5087233;28;20031;-70
2022/03/31 00:43:07;;;;;;;9.88;4.90;;;;;;;;;;5077064;28;20031;-69
2022/03/31 00:45:46;;;;;;;8.52;4.88;;;;;;;;;;5084188;28;20021;-69
2022/03/31 00:48:13;;;;;;;7.38;4.60;;;;;;;;;;5079206;28;20028;-69
2022/03/31 00:50:38;;;;;;;7.10;4.60;;;;;;;;;;5082163;28;20019;-68
2022/03/31 00:53:04;;;;;;;11.23;4.47;;;;;;;;;;5087276;28;20023;-69
2022/03/31 00:55:31;;;;;;;8.70;5.28;;;;;;;;;;5075494;28;20052;-68
2022/03/31 00:57:57;;;;;;;6.93;4.03;;;;;;;;;;5084171;28;20024;-69
2022/03/31 01:00:23;;;;;;;8.07;4.45;;;;;;;;;;5078692;28;20021;-69
2022/03/31 01:02:49;;;;;;;8.77;4.47;;;;;;;;;;5074045;28;20032;-69
2022/03/31 01:05:15;;;;;;;11.57;4.70;;;;;;;;;;5081001;28;20482;-68
2022/03/31 01:07:41;;;;;;;6.85;4.53;;;;;;;;;;5084256;28;20051;-68
2022/03/31 01:10:08;;;;;;;7.25;4.32;;;;;;;;;;5076136;28;20029;-68
2022/03/31 01:12:34;;;;;;;7.07;4.28;;;;;;;;;;5081284;28;20044;-68
2022/03/31 01:15:07;;;;;;;8.38;4.55;;;;;;;;;;5079651;28;20722;-69
2022/03/31 01:17:34;;;;;;;10.55;4.28;;;;;;;;;;5084818;28;20029;-68
2022/03/31 01:20:00;;;;;;;7.32;4.70;;;;;;;;;;5081682;28;20770;-69
2022/03/31 01:22:28;;;;;;;10.73;4.80;;;;;;;;;;5075749;28;20140;-69
2022/03/31 01:24:54;;;;;;;10.55;4.20;;;;;;;;;;5075288;28;20028;-69
2022/03/31 01:27:20;;;;;;;10.25;4.45;;;;;;;;;;5084886;28;20036;-69
2022/03/31 01:29:46;;;;;;;6.28;3.95;;;;;;;;;;5075770;28;20103;-69
2022/03/31 01:32:12;;;;;;;6.00;3.55;;;;;;;;;;5082850;28;20032;-69
2022/03/31 01:34:38;;;;;;;8.10;4.40;;;;;;;;;;5075806;28;20236;-68
2022/03/31 01:37:05;;;;;;;8.55;4.38;;;;;;;;;;5083239;28;20513;-69
2022/03/31 01:39:31;;;;;;;11.27;4.25;;;;;;;;;;5077285;28;20037;-69
2022/03/31 01:41:57;;;;;;;11.27;4.50;;;;;;;;;;5080693;28;20028;-68
2022/03/31 01:44:23;;;;;;;6.82;3.92;;;;;;;;;;5082668;28;20036;-69
2022/03/31 01:46:49;;;;;;;7.60;4.28;;;;;;;;;;5082021;28;20027;-69
2022/03/31 01:49:15;;;;;;;7.13;3.80;;;;;;;;;;5072961;28;20021;-68
2022/03/31 01:51:41;;;;;;;10.38;4.22;;;;;;;;;;5082692;28;20797;-69
2022/03/31 01:54:07;;;;;;;7.45;4.10;;;;;;;;;;5084008;28;20153;-68
2022/03/31 01:56:34;;;;;;;6.85;4.10;;;;;;;;;;5073666;28;20028;-68
2022/03/31 01:59:00;;;;;;;11.88;4.00;;;;;;;;;;5076937;28;20024;-69
2022/03/31 02:01:27;;;;;;;9.88;4.22;;;;;;;;;;5075891;28;20490;-69
2022/03/31 02:03:52;;;;;;;8.65;3.85;;;;;;;;;;5071020;28;20410;-68
2022/03/31 02:06:18;;;;;;;7.10;3.88;;;;;;;;;;5078396;28;20032;-69
2022/03/31 02:08:45;;;;;;;7.80;4.03;;;;;;;;;;5076964;28;20024;-69
2022/03/31 02:11:12;;;;;;;8.65;4.38;;;;;;;;;;5077294;28;20032;-69
2022/03/31 02:13:38;;;;;;;8.05;4.07;;;;;;;;;;5078552;28;20032;-69
2022/03/31 02:16:04;;;;;;;6.90;3.92;;;;;;;;;;5077062;28;20422;-69
2022/03/31 02:18:30;;;;;;;7.53;3.75;;;;;;;;;;5084766;28;20070;-69
2022/03/31 02:20:56;;;;;;;8.95;3.95;;;;;;;;;;5080421;28;20020;-69
2022/03/31 02:23:22;;;;;;;7.57;3.83;;;;;;;;;;5074323;28;20063;-68
2022/03/31 02:25:48;;;;;;;8.98;3.80;;;;;;;;;;5077220;28;20020;-69
2022/03/31 02:28:14;;;;;;;8.00;3.80;;;;;;;;;;5081731;28;20138;-69
2022/03/31 02:30:40;;;;;;;9.23;3.70;;;;;;;;;;5083147;28;20024;-68
2022/03/31 02:33:06;;;;;;;9.45;3.80;;;;;;;;;;5085354;28;20043;-68
2022/03/31 02:35:32;;;;;;;10.77;4.05;;;;;;;;;;5080798;28;20047;-68
2022/03/31 02:37:58;;;;;;;6.90;4.05;;;;;;;;;;5078027;28;20475;-68
2022/03/31 02:40:24;;;;;;;7.45;3.70;;;;;;;;;;5073249;28;20082;-68
2022/03/31 02:42:50;;;;;;;6.15;3.67;;;;;;;;;;5075008;28;20090;-69
2022/03/31 02:45:16;;;;;;;5.53;3.70;;;;;;;;;;5075727;28;20086;-69
2022/03/31 02:47:45;;;;;;;7.35;4.45;;;;;;;;;;5079844;28;20119;-68
2022/03/31 02:50:11;;;;;;;7.63;3.95;;;;;;;;;;5082546;28;20502;-68
2022/03/31 02:55:24;;;;;;;11.07;3.88;;;;;;;;;;5081265;28;20047;-68
2022/03/31 02:57:51;;;;;;;8.93;3.65;;;;;;;;;;5071777;28;22398;-69
2022/03/31 03:00:17;;;;;;;7.60;4.15;;;;;;;;;;5080617;28;20385;-68
2022/03/31 03:02:43;;;;;;;10.05;3.88;;;;;;;;;;5071706;28;20025;-68
2022/03/31 03:05:09;;;;;;;6.95;3.75;;;;;;;;;;5080152;28;20119;-68
2022/03/31 03:07:35;;;;;;;9.82;3.78;;;;;;;;;;5079872;28;20115;-69
2022/03/31 03:10:00;;;;;;;7.68;3.97;;;;;;;;;;5080605;28;20020;-68
2022/03/31 03:12:26;;;;;;;8.30;3.70;;;;;;;;;;5072153;28;20040;-69
2022/03/31 03:14:52;;;;;;;8.15;4.57;;;;;;;;;;5078500;28;20032;-69
2022/03/31 03:17:18;;;;;;;8.32;3.70;;;;;;;;;;5073991;28;20419;-68
2022/03/31 03:19:44;;;;;;;8.05;4.03;;;;;;;;;;5077215;28;20715;-69
2022/03/31 03:22:10;;;;;;;8.40;3.63;;;;;;;;;;5079255;28;20055;-68
2022/03/31 03:24:36;;;;;;;15.50;4.43;;;;;;;;;;5074908;28;20028;-69
2022/03/31 03:27:02;;;;;;;9.82;4.53;;;;;;;;;;5073416;28;20062;-69
2022/03/31 03:29:28;;;;;;;9.98;4.10;;;;;;;;;;5075792;28;20044;-69
2022/03/31 03:31:54;;;;;;;9.18;4.45;;;;;;;;;;5075965;28;20025;-69
2022/03/31 03:34:20;;;;;;;11.95;4.50;;;;;;;;;;5083238;28;20084;-68
2022/03/31 03:36:46;;;;;;;12.57;4.85;;;;;;;;;;5083559;28;20079;-68
2022/03/31 03:39:12;;;;;;;11.48;4.40;;;;;;;;;;5083550;28;20112;-68
2022/03/31 03:41:38;;;;;;;8.45;4.32;;;;;;;;;;5076227;28;20495;-69
2022/03/31 03:44:05;;;;;;;8.77;4.32;;;;;;;;;;5083055;28;20092;-69
2022/03/31 03:46:30;;;;;;;8.18;4.03;;;;;;;;;;5082921;28;20059;-69
2022/03/31 03:48:56;;;;;;;7.97;3.55;;;;;;;;;;5078579;28;20055;-70
2022/03/31 03:51:24;;;;;;;7.45;3.88;;;;;;;;;;5083063;28;20464;-68
2022/03/31 03:53:50;;;;;;;7.13;3.53;;;;;;;;;;5083635;28;20475;-69
2022/03/31 03:56:16;;;;;;;6.85;3.25;;;;;;;;;;5085423;28;20032;-69
2022/03/31 03:58:42;;;;;;;7.85;3.42;;;;;;;;;;5078723;28;20037;-68
2022/03/31 04:01:08;;;;;;;6.03;3.63;;;;;;;;;;5075268;28;20498;-68
2022/03/31 04:03:34;;;;;;;9.38;3.55;;;;;;;;;;5077075;28;20414;-69
2022/03/31 04:06:00;;;;;;;8.77;3.25;;;;;;;;;;5078831;28;20102;-68
2022/03/31 04:08:26;;;;;;;4.95;2.90;;;;;;;;;;5080787;28;20479;-69
2022/03/31 04:10:52;;;;;;;6.63;3.22;;;;;;;;;;5084086;28;20057;-69
2022/03/31 04:13:18;;;;;;;7.22;3.35;;;;;;;;;;5082713;28;20039;-69
2022/03/31 04:15:44;;;;;;;5.72;3.20;;;;;;;;;;5085318;28;20024;-70
2022/03/31 04:18:10;;;;;;;6.47;3.33;;;;;;;;;;5083718;28;20745;-70
2022/03/31 04:20:36;;;;;;;11.52;3.40;;;;;;;;;;5081542;28;20103;-70
2022/03/31 04:23:02;;;;;;;5.90;3.35;;;;;;;;;;5077487;28;20028;-70
2022/03/31 04:25:28;;;;;;;6.25;3.30;;;;;;;;;;5085482;28;20063;-67
2022/03/31 04:27:54;;;;;;;6.72;3.38;;;;;;;;;;5079391;28;20064;-68
2022/03/31 04:30:21;;;;;;;4.78;3.03;;;;;;;;;;5078855;28;20020;-69
2022/03/31 04:32:47;;;;;;;6.00;3.45;;;;;;;;;;5075036;28;20025;-69
2022/03/31 04:35:13;;;;;;;6.18;3.30;;;;;;;;;;5081723;28;20068;-69
2022/03/31 04:37:39;;;;;;;10.38;3.33;;;;;;;;;;5084901;28;20040;-70
2022/03/31 04:40:06;;;;;;;9.05;3.58;;;;;;;;;;5074001;28;20036;-71
2022/03/31 04:42:35;;;;;;;5.82;3.22;;;;;;;;;;5082168;28;20036;-70
2022/03/31 04:45:07;;;;;;;4.65;3.38;;;;;;;;;;5085286;28;20036;-70
2022/03/31 04:47:45;;;;;;;7.55;3.67;;;;;;;;;;5071716;28;20439;-69
2022/03/31 04:50:12;;;;;;;7.22;3.35;;;;;;;;;;5080312;28;20024;-70
2022/03/31 04:52:38;;;;;;;7.72;3.20;;;;;;;;;;5079544;28;20539;-70
2022/03/31 04:55:04;;;;;;;8.38;4.60;;;;;;;;;;5084762;28;20041;-69
2022/03/31 04:57:31;;;;;;;13.30;6.20;;;;;;;;;;5077053;28;20150;-71
2022/03/31 04:59:57;;;;;;;13.63;5.25;;;;;;;;;;5075859;28;20112;-70
2022/03/31 05:02:23;;;;;;;16.63;8.32;;;;;;;;;;5083280;28;20103;-70
2022/03/31 05:04:49;;;;;;;8.07;4.22;;;;;;;;;;5086013;28;20463;-70
2022/03/31 05:07:15;;;;;;;11.00;4.55;;;;;;;;;;5078598;28;20036;-71
2022/03/31 05:09:41;;;;;;;9.98;3.22;;;;;;;;;;5074657;28;20502;-70
2022/03/31 05:12:08;;;;;;;10.27;3.22;;;;;;;;;;5081670;28;20494;-71
2022/03/31 05:14:33;;;;;;;6.43;2.83;;;;;;;;;;5084050;28;20034;-72
2022/03/31 05:17:00;;;;;;;6.80;3.60;;;;;;;;;;5086458;28;20032;-71
2022/03/31 05:19:25;;;;;;;6.22;2.85;;;;;;;;;;5086176;28;20028;-71
2022/03/31 05:21:51;;;;;;;7.75;3.08;;;;;;;;;;5087141;28;20036;-71
2022/03/31 05:24:17;;;;;;;5.85;2.85;;;;;;;;;;5085481;28;20032;-71
2022/03/31 05:26:43;;;;;;;4.70;3.00;;;;;;;;;;5082518;28;20051;-71
2022/03/31 05:29:09;;;;;;;5.68;2.90;;;;;;;;;;5085831;28;20044;-70
2022/03/31 05:31:36;;;;;;;7.97;3.15;;;;;;;;;;5085264;28;20039;-70
2022/03/31 05:34:02;;;;;;;6.20;3.38;;;;;;;;;;5082914;28;20058;-71
2022/03/31 05:36:28;;;;;;;6.45;3.33;;;;;;;;;;5086036;28;20479;-71
2022/03/31 05:38:56;;;;;;;6.25;2.88;;;;;;;;;;5080997;28;20062;-71
2022/03/31 05:41:22;;;;;;;5.28;2.92;;;;;;;;;;5082440;28;20085;-71
2022/03/31 05:43:48;;;;;;;8.27;3.15;;;;;;;;;;5084514;28;20123;-72
2022/03/31 05:46:14;;;;;;;7.63;3.35;;;;;;;;;;5085494;28;20120;-71
2022/03/31 05:48:40;;;;;;;5.10;3.08;;;;;;;;;;5080411;28;20074;-70
2022/03/31 05:51:07;;;;;;;5.60;2.90;;;;;;;;;;5081775;28;20119;-69
2022/03/31 05:53:33;;;;;;;11.98;3.33;;;;;;;;;;5087286;28;20039;-69
2022/03/31 05:55:59;;;;;;;8.75;2.95;;;;;;;;;;5085056;28;20020;-68
2022/03/31 05:58:25;;;;;;;6.45;2.75;;;;;;;;;;5085709;28;20131;-68
2022/03/31 06:00:53;;;;;;;7.28;2.90;;;;;;;;;;5080413;28;20153;-68
2022/03/31 06:03:22;;;;;;;4.93;2.97;;;;;;;;;;5082971;28;20478;-68
2022/03/31 06:05:49;;;;;;;9.65;2.78;;;;;;;;;;5082201;28;20036;-68
2022/03/31 06:08:15;;;;;;;5.68;2.58;;;;;;;;;;5086419;28;20059;-68
2022/03/31 06:10:41;;;;;;;6.53;3.00;;;;;;;;;;5079592;28;20031;-68
2022/03/31 06:13:07;;;;;;;4.32;2.75;;;;;;;;;;5071504;28;20076;-69
2022/03/31 06:15:34;;;;;;;10.48;2.92;;;;;;;;;;5083069;28;20075;-68
2022/03/31 06:18:01;;;;;;;6.97;3.00;;;;;;;;;;5075454;28;20039;-69
2022/03/31 06:20:28;;;;;;;7.13;2.85;;;;;;;;;;5077632;28;20024;-68
2022/03/31 06:22:54;;;;;;;5.63;3.10;;;;;;;;;;5087733;28;20043;-68
2022/03/31 06:25:20;;;;;;;11.30;2.90;;;;;;;;;;5079895;28;20034;-69
2022/03/31 06:27:47;;;;;;;8.73;3.00;;;;;;;;;;5070896;28;20079;-69
2022/03/31 06:30:13;;;;;;;7.30;3.08;;;;;;;;;;5078828;28;20031;-68
2022/03/31 06:32:39;;;;;;;7.35;3.00;;;;;;;;;;5077529;28;20024;-68
2022/03/31 06:35:11;;;;;;;4.55;2.90;;;;;;;;;;5076976;28;20033;-71
2022/03/31 06:37:38;;;;;;;8.98;3.45;;;;;;;;;;5081573;28;20483;-68
2022/03/31 06:40:04;;;;;;;4.88;3.10;;;;;;;;;;5077453;28;20111;-68
2022/03/31 06:42:30;;;;;;;6.07;3.30;;;;;;;;;;5079009;28;20086;-69
2022/03/31 06:44:56;;;;;;;6.40;3.17;;;;;;;;;;5077538;28;20084;-68
2022/03/31 06:47:22;;;;;;;7.60;3.40;;;;;;;;;;5074785;28;20035;-69
2022/03/31 06:50:13;;;;;;;10.13;3.22;;;;;;;;;;5084964;28;20395;-69
2022/03/31 06:52:39;;;;;;;12.75;3.53;;;;;;;;;;5075810;28;20115;-69
2022/03/31 06:55:05;;;;;;;10.32;3.70;;;;;;;;;;5076951;28;20040;-69
2022/03/31 06:57:31;;;;;;;6.15;3.22;;;;;;;;;;5085053;28;20032;-69
2022/03/31 06:59:57;;;;;;;7.57;3.20;;;;;;;;;;5072122;28;20135;-70
2022/03/31 07:02:23;;;;;;;6.47;4.18;;;;;;;;;;5081132;28;20024;-68
2022/03/31 07:04:49;;;;;;;6.50;2.92;;;;;;;;;;5083416;28;20024;-68
2022/03/31 07:07:15;;;;;;;9.27;3.53;;;;;;;;;;5082282;28;20024;-69
2022/03/31 07:09:41;;;;;;;8.52;3.58;;;;;;;;;;5083728;28;20428;-70
2022/03/31 07:12:07;;;;;;;9.00;3.42;;;;;;;;;;5085599;28;20071;-70
2022/03/31 07:14:36;;;;;;;5.90;3.25;;;;;;;;;;5079392;28;20028;-70
2022/03/31 07:17:02;;;;;;;8.07;3.33;;;;;;;;;;5086218;28;20040;-70
2022/03/31 07:19:28;;;;;;;8.13;3.75;;;;;;;;;;5078294;28;20081;-69
2022/03/31 07:21:55;;;;;;;7.20;3.47;;;;;;;;;;5084893;28;20702;-70
2022/03/31 07:24:20;;;;;;;5.50;3.40;;;;;;;;;;5080063;28;20066;-70
2022/03/31 07:26:47;;;;;;;9.10;3.30;;;;;;;;;;5090258;28;20474;-71
2022/03/31 07:29:13;;;;;;;7.88;4.20;;;;;;;;;;5084939;28;20020;-73
2022/03/31 07:31:38;;;;;;;9.23;3.80;;;;;;;;;;5078956;28;20112;-73
2022/03/31 07:34:04;;;;;;;6.38;3.50;;;;;;;;;;5087705;28;20158;-72
2022/03/31 07:36:30;;;;;;;6.03;3.55;;;;;;;;;;5091073;28;20031;-72
2022/03/31 07:38:56;;;;;;;7.38;3.70;;;;;;;;;;5081430;28;20032;-73
2022/03/31 07:41:22;;;;;;;6.20;3.80;;;;;;;;;;5081212;28;20021;-73
2022/03/31 07:43:48;;;;;;;10.63;3.80;;;;;;;;;;5088783;28;20029;-72
2022/03/31 07:46:14;;;;;;;7.90;3.88;;;;;;;;;;5091111;28;20043;-72
2022/03/31 07:48:40;;;;;;;8.40;3.70;;;;;;;;;;5084079;28;20378;-73
2022/03/31 07:51:26;;;;;;;;;;;;;;;;;;;;;
2022/03/31 07:53:52;;;;;;;8.07;4.00;;;;;;;;;;5085751;28;20035;-72
2022/03/31 07:56:18;;;;;;;6.88;3.38;;;;;;;;;;5080840;28;20107;-71
2022/03/31 07:59:20;;;;;;;6.47;3.45;;;;;;;;;;5078568;28;20426;-70
2022/03/31 08:01:46;;;;;;;9.60;4.43;;;;;;;;;;5075288;28;20037;-71
2022/03/31 08:04:13;;;;;;;7.05;3.83;;;;;;;;;;5085792;28;20488;-74
2022/03/31 08:06:39;;;;;;;4.97;3.40;;;;;;;;;;5078677;28;20036;-70
2022/03/31 08:09:05;;;;;;;5.00;3.42;;;;;;;;;;5083216;28;20034;-69
2022/03/31 08:11:32;;;;;;;4.97;3.40;;;;;;;;;;5086569;28;20062;-78
2022/03/31 08:13:58;;;;;;;12.57;5.07;;;;;;;;;;5087041;28;20506;-77
2022/03/31 08:16:25;;;;;;;19.35;4.10;;;;;;;;;;5075436;28;20056;-77
2022/03/31 08:18:51;;;;;;;9.07;4.20;;;;;;;;;;5082275;28;20078;-79
2022/03/31 08:21:17;;;;;;;8.18;4.18;;;;;;;;;;5076439;28;20016;-78
2022/03/31 08:23:43;;;;;;;7.50;3.55;;;;;;;;;;5083622;28;20089;-78
2022/03/31 08:26:09;;;;;;;7.38;3.60;;;;;;;;;;5087404;28;20024;-78
2022/03/31 08:28:36;;;;;;;9.52;3.45;;;;;;;;;;5085512;28;20567;-79
2022/03/31 08:31:02;;;;;;;9.20;3.45;;;;;;;;;;5075810;28;20059;-79
2022/03/31 08:33:28;;;;;;;6.22;3.50;;;;;;;;;;5079610;28;20083;-79
2022/03/31 08:35:54;;;;;;;7.10;3.40;;;;;;;;;;5080240;28;20024;-79
2022/03/31 08:38:20;;;;;;;7.53;3.53;;;;;;;;;;5076498;28;20049;-78
2022/03/31 08:40:46;;;;;;;7.22;3.42;;;;;;;;;;5081200;28;20110;-79
2022/03/31 08:43:12;;;;;;;7.28;3.50;;;;;;;;;;5088382;28;20032;-78
2022/03/31 08:45:40;;;;;;;7.15;3.83;;;;;;;;;;5087543;28;20482;-69
2022/03/31 08:48:07;;;;;;;9.68;3.80;;;;;;;;;;5076328;28;20695;-69
2022/03/31 08:50:34;;;;;;;9.40;3.60;;;;;;;;;;5088401;28;20030;-69
2022/03/31 08:53:00;;;;;;;7.25;3.42;;;;;;;;;;5066390;28;20031;-69
2022/03/31 08:55:26;;;;;;;5.30;3.58;;;;;;;;;;5081601;28;20029;-69
2022/03/31 08:57:54;;;;;;;5.85;3.65;;;;;;;;;;5086123;28;20435;-69
2022/03/31 09:00:22;;;;;;;13.88;3.53;;;;;;;;;;5077556;28;20126;-69
2022/03/31 09:02:55;;;;;;;11.43;3.88;;;;;;;;;;5080035;28;20058;-69
2022/03/31 09:05:21;;;;;;;5.32;3.75;;;;;;;;;;5082329;28;20127;-69
2022/03/31 09:07:57;;;;;;;6.25;3.75;;;;;;;;;;5084368;28;21376;-69
2022/03/31 09:10:29;;;;;;;8.63;3.65;;;;;;;;;;5085518;28;20029;-69
2022/03/31 09:12:56;;;;;;;6.00;3.50;;;;;;;;;;5075999;28;20048;-70
2022/03/31 09:15:22;;;;;;;7.72;3.90;;;;;;;;;;5087404;28;20099;-67
2022/03/31 09:17:53;;;;;;;9.98;4.13;;;;;;;;;;5079407;28;20060;-70
2022/03/31 09:20:22;;;;;;;7.82;3.95;;;;;;;;;;5078689;28;20028;-70
2022/03/31 09:22:49;;;;;;;5.47;3.55;;;;;;;;;;5086990;28;20024;-69
2022/03/31 09:25:28;;;;;;;6.97;4.10;;;;;;;;;;5082256;28;20043;-70
2022/03/31 09:27:55;;;;;;;8.73;3.80;;;;;;;;;;5075994;28;20024;-70
2022/03/31 09:30:22;;;;;;;4.97;3.20;;;;;;;;;;5070132;28;20024;-70
2022/03/31 09:32:52;;;;;;;9.00;3.92;;;;;;;;;;5076618;28;20032;-70
2022/03/31 09:35:23;;;;;;;8.68;3.78;;;;;;;;;;5071928;28;20605;-70
2022/03/31 09:37:49;;;;;;;9.10;3.72;;;;;;;;;;5086593;28;20024;-70
2022/03/31 09:40:19;;;;;;;11.32;3.78;;;;;;;;;;5082837;28;20378;-69
2022/03/31 09:42:56;;;;;;;7.72;3.55;;;;;;;;;;5077670;28;20024;-69
2022/03/31 09:45:22;;;;;;;6.72;3.58;;;;;;;;;;5074485;28;20028;-69
2022/03/31 09:47:51;;;;;;;9.85;3.90;;;;;;;;;;5070823;28;20025;-69
2022/03/31 09:50:17;;;;;;;9.32;3.70;;;;;;;;;;5079883;28;20028;-68
2022/03/31 09:52:44;;;;;;;5.97;3.40;;;;;;;;;;5079095;28;20040;-68
2022/03/31 09:55:11;;;;;;;6.30;3.63;;;;;;;;;;5081819;28;20086;-68
2022/03/31 09:57:39;;;;;;;9.77;3.70;;;;;;;;;;5082822;28;20017;-69
2022/03/31 10:00:06;;;;;;;8.30;4.00;;;;;;;;;;5078515;28;20111;-68
2022/03/31 10:02:35;;;;;;;14.07;3.83;;;;;;;;;;5076854;28;20128;-69
2022/03/31 10:05:01;;;;;;;8.15;4.07;;;;;;;;;;5080655;28;20051;-69
2022/03/31 10:07:29;;;;;;;9.07;4.10;;;;;;;;;;5077993;28;20025;-70
2022/03/31 10:09:54;;;;;;;5.78;3.90;;;;;;;;;;5081387;28;20012;-69
2022/03/31 10:12:33;;;;;;;4.60;3.53;;;;;;;;;;5082995;28;20050;-68
2022/03/31 10:15:01;;;;;;;5.80;4.00;;;;;;;;;;5079140;28;20044;-69
2022/03/31 10:17:28;;;;;;;10.43;3.92;;;;;;;;;;5079825;28;20498;-68
2022/03/31 10:20:05;;;;;;;6.05;3.45;;;;;;;;;;5072278;28;20028;-68
2022/03/31 10:25:19;;;;;;;8.45;3.78;;;;;;;;;;5069101;28;20519;-69
2022/03/31 10:27:46;;;;;;;6.07;3.72;;;;;;;;;;5072814;28;20028;-69
2022/03/31 10:30:19;;;;;;;8.07;3.35;;;;;;;;;;5075866;28;20444;-69
2022/03/31 10:33:14;;;;;;;7.00;3.55;;;;;;;;;;5077324;28;20013;-68
2022/03/31 10:35:41;;;;;;;8.25;3.80;;;;;;;;;;5073740;28;20024;-70
2022/03/31 10:38:13;;;;;;;8.30;4.22;;;;;;;;;;5074976;28;20063;-69
2022/03/31 10:40:42;;;;;;;7.07;4.18;;;;;;;;;;5084535;28;20031;-70
2022/03/31 10:43:11;;;;;;;10.63;4.18;;;;;;;;;;5084625;28;20050;-70
2022/03/31 10:45:40;;;;;;;5.88;3.80;;;;;;;;;;5081893;28;20140;-70
2022/03/31 10:48:17;;;;;;;10.20;4.18;;;;;;;;;;5088980;28;20107;-70
2022/03/31 10:50:43;;;;;;;7.47;4.25;;;;;;;;;;5077598;28;20653;-71
2022/03/31 10:53:09;;;;;;;11.95;4.20;;;;;;;;;;5076317;28;20033;-69
2022/03/31 10:55:48;;;;;;;7.72;3.88;;;;;;;;;;5078767;28;20020;-69
2022/03/31 10:58:25;;;;;;;12.73;3.70;;;;;;;;;;5080466;28;20024;-70
2022/03/31 11:00:52;;;;;;;10.10;4.15;;;;;;;;;;5087812;28;20035;-71
2022/03/31 11:03:18;;;;;;;6.68;3.80;;;;;;;;;;5083337;28;20402;-70
2022/03/31 11:05:44;;;;;;;7.60;4.10;;;;;;;;;;5082350;28;20024;-77
2022/03/31 11:08:16;;;;;;;6.65;4.10;;;;;;;;;;5088895;28;20037;-74
2022/03/31 11:10:43;;;;;;;8.57;4.15;;;;;;;;;;5074953;28;20028;-74
2022/03/31 11:13:10;;;;;;;6.18;4.05;;;;;;;;;;5078869;28;20056;-77
2022/03/31 11:15:36;;;;;;;8.75;3.67;;;;;;;;;;5079957;28;20435;-77
2022/03/31 11:18:03;;;;;;;8.55;4.18;;;;;;;;;;5084999;28;20020;-77
2022/03/31 11:20:29;;;;;;;6.85;4.20;;;;;;;;;;5089750;28;20032;-77
2022/03/31 11:23:06;;;;;;;6.30;3.80;;;;;;;;;;5084836;28;20023;-76
2022/03/31 11:25:33;;;;;;;7.20;4.03;;;;;;;;;;5086736;28;20020;-77
2022/03/31 11:28:06;;;;;;;6.88;3.75;;;;;;;;;;5087611;28;20439;-77
2022/03/31 11:30:32;;;;;;;8.20;3.83;;;;;;;;;;5086350;28;20085;-76
2022/03/31 11:32:58;;;;;;;5.78;3.70;;;;;;;;;;5079221;28;20024;-76
2022/03/31 11:35:25;;;;;;;9.68;4.15;;;;;;;;;;5085397;28;20106;-76
2022/03/31 11:37:52;;;;;;;7.82;4.30;;;;;;;;;;5081150;28;20063;-77
2022/03/31 11:40:21;;;;;;;11.38;4.35;;;;;;;;;;5076265;28;20024;-76
2022/03/31 11:42:48;;;;;;;7.22;3.75;;;;;;;;;;5088409;28;20028;-77
2022/03/31 11:45:23;;;;;;;7.38;4.07;;;;;;;;;;5089348;28;20065;-77
2022/03/31 11:47:59;;;;;;;7.50;4.30;;;;;;;;;;5068528;28;20035;-77
2022/03/31 11:50:26;;;;;;;10.32;4.45;;;;;;;;;;5076046;28;20454;-76
2022/03/31 11:52:53;;;;;;;7.78;4.55;;;;;;;;;;5082197;28;20069;-77
2022/03/31 11:55:21;;;;;;;15.52;6.63;;;;;;;;;;5089032;28;20478;-77
2022/03/31 11:57:51;;;;;;;7.60;4.40;;;;;;;;;;5076930;28;20393;-78
2022/03/31 12:00:20;;;;;;;7.80;4.65;;;;;;;;;;5093226;28;20561;-77
2022/03/31 12:02:59;;;;;;;8.48;4.07;;;;;;;;;;5090281;28;20021;-77
2022/03/31 12:05:29;;;;;;;7.63;4.50;;;;;;;;;;5078682;28;20145;-76
2022/03/31 12:07:55;;;;;;;7.53;4.28;;;;;;;;;;5089063;28;20077;-77
2022/03/31 12:10:22;;;;;;;8.50;4.55;;;;;;;;;;5081411;28;20396;-77
2022/03/31 12:12:49;;;;;;;7.82;4.35;;;;;;;;;;5090188;28;20051;-77
2022/03/31 12:15:22;;;;;;;6.28;3.90;;;;;;;;;;5082131;28;20028;-77
2022/03/31 12:17:58;;;;;;;9.45;4.32;;;;;;;;;;5088495;28;20120;-77
2022/03/31 12:20:27;;;;;;;7.05;4.35;;;;;;;;;;5074716;28;20032;-77
2022/03/31 12:22:54;;;;;;;6.60;4.38;;;;;;;;;;5076878;28;20052;-75
2022/03/31 12:25:30;;;;;;;11.55;3.92;;;;;;;;;;5083208;28;20071;-81
2022/03/31 12:27:59;;;;;;;7.53;4.47;;;;;;;;;;5079802;28;20032;-75
2022/03/31 12:30:26;;;;;;;10.98;4.10;;;;;;;;;;5080408;28;20142;-77
2022/03/31 12:32:52;;;;;;;9.10;3.78;;;;;;;;;;5075952;28;20425;-76
2022/03/31 12:35:19;;;;;;;8.63;4.55;;;;;;;;;;5079157;28;20117;-76
2022/03/31 12:37:47;;;;;;;9.18;5.30;;;;;;;;;;5078283;28;20032;-77
2022/03/31 12:40:14;;;;;;;19.73;11.57;;;;;;;;;;5082465;28;20453;-77
2022/03/31 12:42:57;;;;;;;8.00;5.18;;;;;;;;;;5090625;28;20028;-76
2022/03/31 12:45:24;;;;;;;15.48;7.50;;;;;;;;;;5079513;28;20122;-75
2022/03/31 12:47:50;;;;;;;8.90;4.63;;;;;;;;;;5075596;28;20031;-75
2022/03/31 12:50:16;;;;;;;9.93;5.20;;;;;;;;;;5078777;28;20034;-75
2022/03/31 12:52:52;;;;;;;11.55;4.80;;;;;;;;;;5082967;28;20028;-75
2022/03/31 12:55:17;;;;;;;14.73;5.45;;;;;;;;;;5075989;28;20020;-74
2022/03/31 12:57:54;;;;;;;11.68;4.70;;;;;;;;;;5072968;28;20044;-75
2022/03/31 13:00:21;;;;;;;6.97;4.18;;;;;;;;;;5076653;28;20058;-74
2022/03/31 13:02:47;;;;;;;8.63;5.32;;;;;;;;;;5079668;28;20508;-75
2022/03/31 13:05:18;;;;;;;14.68;9.07;;;;;;;;;;5077991;28;20070;-75
2022/03/31 13:07:44;;;;;;;9.38;5.05;;;;;;;;;;5083023;28;20690;-75
2022/03/31 13:10:10;;;;;;;7.10;3.90;;;;;;;;;;5078146;28;20074;-75
2022/03/31 13:12:36;;;;;;;12.73;3.50;;;;;;;;;;5076936;28;20487;-73
2022/03/31 13:15:02;;;;;;;8.80;3.20;;;;;;;;;;5086014;28;20024;-75
2022/03/31 13:17:28;;;;;;;10.15;5.28;;;;;;;;;;5085653;28;20054;-74
2022/03/31 13:19:55;;;;;;;6.97;4.07;;;;;;;;;;5083972;28;20024;-74
2022/03/31 13:22:24;;;;;;;10.57;2.85;;;;;;;;;;5083781;28;20111;-74
2022/03/31 13:24:51;;;;;;;9.35;4.90;;;;;;;;;;5084081;28;20051;-75
2022/03/31 13:27:17;;;;;;;10.52;4.03;;;;;;;;;;5078843;28;20031;-75
2022/03/31 13:29:47;;;;;;;8.90;3.60;;;;;;;;;;5077289;28;20032;-75
2022/03/31 13:32:12;;;;;;;6.78;2.92;;;;;;;;;;5078646;28;20066;-74
2022/03/31 13:34:45;;;;;;;9.43;3.67;;;;;;;;;;5075030;28;20044;-74
2022/03/31 13:37:11;;;;;;;10.25;4.15;;;;;;;;;;5075873;28;20036;-71
2022/03/31 13:39:37;;;;;;;17.95;6.38;;;;;;;;;;5070051;28;20051;-72
2022/03/31 13:42:04;;;;;;;5.30;2.83;;;;;;;;;;5082588;28;20657;-71
2022/03/31 13:44:30;;;;;;;7.68;3.55;;;;;;;;;;5080426;28;20059;-71
2022/03/31 13:46:56;;;;;;;5.97;3.65;;;;;;;;;;5079531;28;20056;-70
2022/03/31 13:49:23;;;;;;;3.28;2.40;;;;;;;;;;5078714;28;20024;-69
2022/03/31 13:51:49;;;;;;;8.23;2.30;;;;;;;;;;5083826;28;20052;-70
2022/03/31 13:54:39;;;;;;;9.18;3.13;;;;;;;;;;5089559;28;20028;-71
2022/03/31 13:57:03;;;;;;;5.00;2.40;;;;;;;;;;5078335;28;20043;-71
2022/03/31 14:02:16;;;;;;;3.72;2.03;;;;;;;;;;5078088;28;20120;-71
2022/03/31 14:04:52;;;;;;;6.80;2.25;;;;;;;;;;5078752;28;20035;-70
2022/03/31 14:07:18;;;;;;;4.03;1.83;;;;;;;;;;5075639;28;20056;-70
2022/03/31 14:09:47;;;;;;;6.47;2.10;;;;;;;;;;5086304;28;20544;-71
2022/03/31 14:12:13;;;;;;;7.00;2.17;;;;;;;;;;5074224;28;20067;-70
2022/03/31 14:14:39;;;;;;;6.22;2.20;;;;;;;;;;5078373;28;20020;-71
2022/03/31 14:17:07;;;;;;;4.05;2.28;;;;;;;;;;5077975;28;20031;-70
2022/03/31 14:19:33;;;;;;;5.85;2.10;;;;;;;;;;5086879;28;20028;-73
2022/03/31 14:22:00;;;;;;;10.35;2.83;;;;;;;;;;5076421;28;20089;-71
2022/03/31 14:24:26;;;;;;;10.98;2.25;;;;;;;;;;5075427;28;20031;-71
2022/03/31 14:26:52;;;;;;;4.65;1.95;;;;;;;;;;5082548;28;20435;-71
2022/03/31 14:29:18;;;;;;;6.40;2.03;;;;;;;;;;5071195;28;20036;-71
2022/03/31 14:31:45;;;;;;;11.65;2.97;;;;;;;;;;5083390;28;20044;-71
2022/03/31 14:34:13;;;;;;;4.28;2.20;;;;;;;;;;5080184;28;20096;-71
2022/03/31 14:36:40;;;;;;;4.65;2.00;;;;;;;;;;5076311;28;20371;-73
2022/03/31 14:39:08;;;;;;;5.70;2.50;;;;;;;;;;5078204;28;20486;-72
2022/03/31 14:41:35;;;;;;;9.10;2.28;;;;;;;;;;5080467;28;20063;-70
2022/03/31 14:44:02;;;;;;;6.10;2.65;;;;;;;;;;5074835;28;20096;-70
2022/03/31 14:46:28;;;;;;;4.25;2.45;;;;;;;;;;5078096;28;20043;-72
2022/03/31 14:48:55;;;;;;;4.43;2.10;;;;;;;;;;5082264;28;20405;-71
2022/03/31 14:51:23;;;;;;;5.72;2.10;;;;;;;;;;5078784;28;20024;-74